createdAt,value
2023-05-19T00:16:30.273Z,101737.76
2023-05-19T00:31:33.483Z,101732.32
2023-05-19T00:46:37.261Z,101724.30
2023-05-19T01:01:40.159Z,101732.52
2023-05-19T01:17:15.204Z,101739.45
2023-05-19T01:32:22.557Z,101729.13
2023-05-19T01:47:25.852Z,101732.16
2023-05-19T02:02:37.569Z,101741.15
2023-05-19T02:17:57.529Z,101741.65
2023-05-19T02:33:14.532Z,101738.48
2023-05-19T02:48:31.648Z,101742.88
2023-05-19T03:03:34.707Z,101737.29
2023-05-19T03:18:38.384Z,101732.89
2023-05-19T03:33:41.265Z,101724.00
2023-05-19T03:48:44.738Z,101725.91
2023-05-19T04:03:47.579Z,101730.02
2023-05-19T04:19:05.753Z,101730.07
2023-05-19T04:34:09.493Z,101731.35
2023-05-19T04:49:26.554Z,101740.16
2023-05-19T05:04:29.348Z,101750.80
2023-05-19T05:19:32.893Z,101756.54
2023-05-19T05:34:50.856Z,101745.25
2023-05-19T05:49:53.787Z,101753.45
2023-05-19T06:04:56.697Z,101763.39
2023-05-19T06:19:59.921Z,101767.61
2023-05-19T06:35:03.101Z,101765.50
2023-05-19T06:50:06.472Z,101774.10
2023-05-19T07:05:10.070Z,101780.83
2023-05-19T07:20:13.624Z,101786.83
2023-05-19T07:35:16.520Z,101774.28
2023-05-19T07:50:33.832Z,101768.95
2023-05-19T08:05:36.870Z,101776.95
2023-05-19T08:20:39.978Z,101765.54
2023-05-19T08:36:00.288Z,101752.15
2023-05-19T08:51:30.738Z,101761.01
2023-05-19T09:06:33.400Z,101761.07
2023-05-19T09:22:03.282Z,101755.86
2023-05-19T09:37:06.154Z,101750.64
2023-05-19T09:52:10.011Z,101750.75
2023-05-19T10:07:15.315Z,101746.88
2023-05-19T10:22:18.727Z,101744.79
2023-05-19T10:37:52.926Z,101740.93
2023-05-19T10:52:56.190Z,101738.49
2023-05-19T11:08:07.496Z,101739.06
2023-05-19T11:23:26.658Z,101736.33
2023-05-19T11:38:29.612Z,101731.02
2023-05-19T11:53:35.538Z,101726.69
2023-05-19T12:08:38.679Z,101725.82
2023-05-19T12:23:56.333Z,101726.44
2023-05-19T12:38:59.090Z,101737.27
2023-05-19T12:54:04.840Z,101722.32
2023-05-19T13:09:22.301Z,101723.59
2023-05-19T13:24:25.334Z,101719.26
2023-05-19T13:39:28.241Z,101724.84
2023-05-19T13:54:30.866Z,101718.39
2023-05-19T14:09:33.772Z,101708.46
2023-05-19T14:24:36.951Z,101704.83
2023-05-19T14:39:54.857Z,101707.23
2023-05-19T14:54:58.206Z,101711.00
2023-05-19T15:10:01.584Z,101720.45
2023-05-19T15:25:06.041Z,101721.38
2023-05-19T15:40:10.467Z,101718.99
2023-05-19T15:55:39.513Z,101710.96
2023-05-19T16:10:42.580Z,101710.75
2023-05-19T16:25:47.075Z,101719.48
2023-05-19T16:40:50.372Z,101708.26
2023-05-19T16:55:53.838Z,101705.72
2023-05-19T17:10:59.125Z,101699.04
2023-05-19T17:26:03.149Z,101696.82
2023-05-19T17:56:45.228Z,101683.46
2023-05-19T18:11:48.152Z,101686.84
2023-05-19T18:27:06.142Z,101694.98
2023-05-19T18:42:09.140Z,101707.69
2023-05-19T18:57:13.332Z,101706.20
2023-05-19T20:02:01.808Z,101723.42
2023-05-19T20:17:06.844Z,101729.23
2023-05-19T20:32:10.883Z,101730.41
2023-05-19T20:47:15.015Z,101737.61
2023-05-19T21:02:20.345Z,101733.82
2023-05-19T21:17:24.064Z,101732.27
2023-05-19T21:32:29.364Z,101729.52
2023-05-19T21:47:32.080Z,101749.94
2023-05-19T22:02:40.282Z,101749.06
2023-05-19T22:17:43.626Z,101751.86
2023-05-19T22:32:46.713Z,101754.61
2023-05-19T22:47:50.266Z,101743.20
2023-05-19T23:37:55.301Z,101731.78
2023-05-19T23:52:58.155Z,101729.41
